createdAt,value
2023-05-21T00:00:59.672Z,99.4853
2023-05-21T00:02:02.133Z,99.4886
2023-05-21T00:03:04.544Z,99.4925
2023-05-21T00:04:05.840Z,99.4872
2023-05-21T00:06:10.230Z,99.4766
2023-05-21T00:07:11.848Z,99.4808
2023-05-21T00:08:12.905Z,99.4908
2023-05-21T00:09:14.513Z,99.4914
2023-05-21T00:10:16.328Z,99.4930
2023-05-21T00:11:17.199Z,99.4963
2023-05-21T00:12:18.358Z,99.5047
2023-05-21T00:14:21.664Z,99.5114
2023-05-21T00:15:22.265Z,99.5335
2023-05-21T00:16:23.503Z,99.5408
2023-05-21T00:18:24.455Z,99.5228
2023-05-21T00:20:27.156Z,99.5658
2023-05-21T00:21:29.136Z,99.5826
2023-05-21T00:22:28.939Z,99.6045
2023-05-21T00:33:44.199Z,99.6490
2023-05-21T00:34:44.368Z,99.6628
2023-05-21T00:36:47.327Z,99.6676
2023-05-21T00:37:48.511Z,99.6798
2023-05-21T00:38:51.243Z,99.6937
2023-05-21T00:39:52.166Z,99.7099
2023-05-21T00:46:01.033Z,99.6899
2023-05-21T00:47:02.746Z,99.7084
2023-05-21T00:48:04.094Z,99.7104
2023-05-21T00:49:05.267Z,99.7094
2023-05-21T00:50:07.176Z,99.6995
2023-05-21T00:51:09.654Z,99.7223
2023-05-21T00:52:10.704Z,99.7390
2023-05-21T00:54:13.508Z,99.7522
2023-05-21T00:55:15.467Z,99.7640
2023-05-21T00:56:16.525Z,99.7690
2023-05-21T00:57:17.170Z,99.7309
2023-05-21T00:58:19.387Z,99.7411
2023-05-21T00:59:20.597Z,99.7558
2023-05-21T01:00:21.939Z,99.7675
2023-05-21T01:01:24.139Z,99.7726
2023-05-21T01:02:26.038Z,99.7689
2023-05-21T01:04:29.454Z,99.7805
2023-05-21T01:05:31.074Z,99.7918
2023-05-21T01:06:32.741Z,99.8052
2023-05-21T01:07:33.747Z,99.8085
2023-05-21T01:09:37.649Z,99.8238
2023-05-21T01:19:46.978Z,99.8383
2023-05-21T01:20:46.676Z,99.8414
2023-05-21T01:34:02.494Z,99.8577
2023-05-21T01:35:01.636Z,99.8606
2023-05-21T01:38:07.351Z,99.8596
2023-05-21T01:44:13.960Z,99.8611
2023-05-21T01:45:15.865Z,99.8751
2023-05-21T01:46:16.903Z,99.8735
2023-05-21T01:47:17.939Z,99.8747
2023-05-21T01:48:18.899Z,99.8685
2023-05-21T01:49:20.804Z,99.8669
2023-05-21T01:58:30.788Z,99.8808
2023-05-21T01:59:31.999Z,99.8803
2023-05-21T02:00:33.715Z,99.8848
2023-05-21T02:01:36.278Z,99.8849
2023-05-21T02:02:37.066Z,99.8938
2023-05-21T02:03:37.288Z,99.8806
2023-05-21T02:04:39.542Z,99.8810
2023-05-21T02:05:39.831Z,99.8760
2023-05-21T02:06:40.859Z,99.8720
2023-05-21T02:07:42.739Z,99.8844
2023-05-21T02:08:43.543Z,99.8824
2023-05-21T02:17:56.214Z,99.9150
2023-05-21T02:24:02.624Z,99.9187
2023-05-21T02:25:07.320Z,99.9373
2023-05-21T02:34:14.566Z,99.9444
2023-05-21T02:35:15.688Z,99.9352
2023-05-21T02:36:16.674Z,99.9524
2023-05-21T02:37:19.117Z,99.9499
2023-05-21T02:38:20.741Z,99.9455
2023-05-21T02:39:22.251Z,99.9445
2023-05-21T02:40:22.588Z,99.9400
2023-05-21T02:41:23.731Z,99.9521
2023-05-21T02:42:25.349Z,99.9480
2023-05-21T02:43:26.435Z,99.9466
2023-05-21T02:44:28.560Z,99.9545
2023-05-21T02:45:29.873Z,99.9571
2023-05-21T02:46:31.035Z,99.9508
2023-05-21T02:48:33.758Z,99.9668
2023-05-21T02:49:35.798Z,99.9693
2023-05-21T03:02:51.378Z,99.9854
2023-05-21T03:03:52.832Z,99.9940
2023-05-21T03:04:54.564Z,99.9989
2023-05-21T03:05:56.410Z,99.9969
2023-05-21T03:06:57.140Z,99.9957
2023-05-21T03:07:58.588Z,99.9968
2023-05-21T03:09:00.823Z,99.9996
2023-05-21T03:10:01.843Z,99.9996
2023-05-21T03:11:03.373Z,99.9978
2023-05-21T03:12:04.960Z,99.9980
2023-05-21T03:13:10.159Z,99.9982
2023-05-21T03:14:08.099Z,99.9997
2023-05-21T03:23:46.931Z,99.9907
2023-05-21T03:24:48.235Z,99.9892
2023-05-21T03:25:49.762Z,99.9914
2023-05-21T03:27:51.766Z,99.9999
2023-05-21T03:28:53.287Z,99.9973
2023-05-21T03:29:55.233Z,99.9984
2023-05-21T03:30:56.668Z,99.9973
2023-05-21T03:31:58.137Z,99.9989
2023-05-21T03:32:59.467Z,99.9958
2023-05-21T03:34:00.933Z,99.9907
2023-05-21T03:35:02.100Z,99.9715
2023-05-21T03:36:03.735Z,99.9611
2023-05-21T03:37:04.744Z,99.9648
2023-05-21T03:38:06.007Z,99.9397
2023-05-21T03:39:07.190Z,99.8993
2023-05-21T03:40:08.596Z,99.9137
2023-05-21T03:42:10.719Z,99.9991
2023-05-21T03:43:12.810Z,100.0000
2023-05-21T03:49:17.184Z,100.0000
2023-05-21T03:50:18.225Z,100.0000
2023-05-21T03:51:19.747Z,100.0000
2023-05-21T03:52:21.016Z,100.0000
2023-05-21T03:53:21.646Z,100.0000
2023-05-21T03:54:22.833Z,100.0000
2023-05-21T03:55:23.963Z,100.0000
2023-05-21T03:56:25.422Z,100.0000
2023-05-21T03:57:26.498Z,100.0000
2023-05-21T03:58:28.126Z,100.0000
2023-05-21T03:59:30.448Z,100.0000
2023-05-21T04:00:30.428Z,100.0000
2023-05-21T04:11:42.364Z,100.0000
2023-05-21T04:12:43.950Z,100.0000
2023-05-21T04:13:45.656Z,100.0000
2023-05-21T04:14:45.472Z,100.0000
2023-05-21T04:16:49.972Z,100.0000
2023-05-21T04:30:04.263Z,100.0000
2023-05-21T04:31:06.452Z,100.0000
2023-05-21T04:32:06.501Z,100.0000
2023-05-21T04:33:08.711Z,100.0000
2023-05-21T04:34:10.650Z,100.0000
2023-05-21T04:39:15.491Z,100.0000
2023-05-21T04:40:17.310Z,100.0000
2023-05-21T04:41:19.395Z,100.0000
2023-05-21T04:42:20.561Z,100.0000
2023-05-21T04:43:23.364Z,100.0000
2023-05-21T04:44:25.601Z,100.0000
2023-05-21T04:53:35.195Z,99.9455
2023-05-21T04:54:36.386Z,99.9308
2023-05-21T04:55:38.738Z,99.8877
2023-05-21T05:02:45.184Z,99.6504
2023-05-21T05:05:49.486Z,99.4561
2023-05-21T05:06:49.715Z,99.4072
2023-05-21T05:07:49.740Z,99.3724
2023-05-21T05:08:51.270Z,99.2810
2023-05-21T05:09:53.514Z,99.1612
2023-05-21T05:10:54.527Z,98.9986
2023-05-21T05:11:56.997Z,98.8743
2023-05-21T05:12:59.168Z,98.7753
2023-05-21T05:14:00.472Z,98.6529
2023-05-21T05:15:03.044Z,98.4922
2023-05-21T05:19:07.186Z,98.3577
2023-05-21T05:26:16.944Z,98.0164
2023-05-21T05:27:19.316Z,97.9652
2023-05-21T05:33:26.350Z,97.5842
2023-05-21T05:34:28.351Z,97.4886
2023-05-21T05:35:29.354Z,97.2835
2023-05-21T05:36:29.772Z,97.2352
2023-05-21T05:37:32.165Z,97.1560
2023-05-21T05:38:33.168Z,97.0542
2023-05-21T05:39:34.158Z,96.8750
2023-05-21T05:40:35.887Z,96.4986
2023-05-21T05:41:37.060Z,96.4423
2023-05-21T05:42:37.959Z,96.3449
2023-05-21T05:43:38.939Z,96.3648
2023-05-21T05:44:40.996Z,96.4134
2023-05-21T05:53:48.431Z,96.1646
2023-05-21T05:55:51.828Z,95.5603
2023-05-21T05:56:53.424Z,95.4006
2023-05-21T05:57:54.347Z,95.5689
2023-05-21T05:58:55.239Z,95.4108
2023-05-21T05:59:56.907Z,95.3505
2023-05-21T06:00:57.810Z,95.2039
2023-05-21T06:01:58.343Z,95.2003
2023-05-21T06:02:59.477Z,95.0206
2023-05-21T06:04:00.635Z,95.1600
2023-05-21T06:05:02.210Z,95.3478
2023-05-21T06:06:04.246Z,95.1438
2023-05-21T06:19:15.295Z,94.1283
2023-05-21T06:20:17.370Z,93.9270
2023-05-21T06:21:17.507Z,93.4666
2023-05-21T06:22:18.623Z,93.0346
2023-05-21T06:24:21.281Z,92.3248
2023-05-21T06:25:21.878Z,92.1200
2023-05-21T06:26:23.270Z,92.3723
2023-05-21T06:27:26.154Z,91.8447
2023-05-21T06:28:27.466Z,91.4581
2023-05-21T06:45:49.487Z,89.2850
2023-05-21T06:46:49.314Z,88.3605
2023-05-21T06:47:51.719Z,87.7701
2023-05-21T06:48:52.129Z,88.2902
2023-05-21T06:52:56.017Z,86.0225
2023-05-21T06:55:00.129Z,86.5173
2023-05-21T06:56:00.710Z,86.7446
2023-05-21T06:57:01.154Z,86.0767
2023-05-21T06:58:02.980Z,86.6480
2023-05-21T06:59:05.270Z,86.3732
2023-05-21T07:06:13.112Z,84.5281
2023-05-21T07:07:14.838Z,84.4290
2023-05-21T07:08:17.342Z,85.4110
2023-05-21T07:09:18.114Z,85.2622
2023-05-21T07:26:39.941Z,81.9968
2023-05-21T07:27:40.701Z,81.8940
2023-05-21T07:28:41.488Z,82.0888
2023-05-21T07:30:44.717Z,82.5942
2023-05-21T07:31:45.905Z,82.2746
2023-05-21T07:32:47.239Z,80.9764
2023-05-21T07:33:48.976Z,79.1934
2023-05-21T07:34:50.558Z,78.6102
2023-05-21T08:00:14.044Z,76.7409
2023-05-21T08:09:20.922Z,76.4247
2023-05-21T08:10:21.128Z,76.2484
2023-05-21T08:11:22.833Z,75.9103
2023-05-21T08:12:23.610Z,76.1640
2023-05-21T08:13:24.241Z,75.1410
2023-05-21T08:14:25.688Z,74.5649
2023-05-21T08:15:26.696Z,74.3069
2023-05-21T08:16:27.027Z,73.1433
2023-05-21T08:17:29.615Z,70.3960
2023-05-21T08:18:29.937Z,69.2038
2023-05-21T08:19:30.937Z,67.8340
2023-05-21T08:20:33.438Z,70.6236
2023-05-21T08:21:33.818Z,68.6848
2023-05-21T08:22:34.422Z,67.0101
2023-05-21T08:23:35.385Z,70.8317
2023-05-21T08:24:35.618Z,71.3675
2023-05-21T08:26:37.661Z,71.0505
2023-05-21T08:27:37.481Z,72.3254
2023-05-21T08:28:39.542Z,72.2495
2023-05-21T08:29:41.688Z,69.1527
2023-05-21T08:30:42.282Z,69.8610
2023-05-21T08:31:42.239Z,69.2636
2023-05-21T08:33:46.553Z,70.4076
2023-05-21T08:34:46.834Z,70.7387
2023-05-21T08:44:53.922Z,67.4991
2023-05-21T08:45:56.360Z,66.6181
2023-05-21T08:46:56.754Z,65.4569
2023-05-21T08:49:00.385Z,63.3589
2023-05-21T08:50:02.209Z,64.3344
2023-05-21T08:51:03.006Z,63.9301
2023-05-21T08:52:04.050Z,65.2117
2023-05-21T08:53:19.732Z,65.8481
2023-05-21T08:56:07.949Z,66.0647
2023-05-21T08:57:08.140Z,67.0673
2023-05-21T09:01:20.281Z,71.2143
2023-05-21T09:05:23.983Z,68.8189
2023-05-21T09:07:27.224Z,66.3307
2023-05-21T09:08:28.439Z,66.2696
2023-05-21T09:09:29.800Z,63.2790
2023-05-21T09:10:31.210Z,62.9213
2023-05-21T09:11:31.734Z,62.5236
2023-05-21T09:12:33.859Z,63.1232
2023-05-21T09:13:39.476Z,62.1380
2023-05-21T09:23:44.089Z,58.6514
2023-05-21T09:27:50.209Z,61.9686
2023-05-21T09:28:51.944Z,63.6512
2023-05-21T09:29:53.612Z,63.7037
2023-05-21T09:31:00.209Z,63.6199
2023-05-21T09:43:13.319Z,52.5520
2023-05-21T09:45:17.846Z,59.1805
2023-05-21T09:46:17.701Z,60.2211
2023-05-21T09:47:19.929Z,60.4896
2023-05-21T09:48:20.126Z,59.1029
2023-05-21T09:49:21.261Z,61.8449
2023-05-21T09:51:23.697Z,62.9426
2023-05-21T09:52:23.869Z,59.6989
2023-05-21T09:53:25.475Z,57.8330
2023-05-21T09:54:26.882Z,59.3775
2023-05-21T09:55:28.537Z,61.1561
2023-05-21T09:57:29.916Z,61.4845
2023-05-21T09:58:31.799Z,61.1402
2023-05-21T10:03:40.219Z,62.5047
2023-05-21T10:04:41.641Z,59.6182
2023-05-21T10:05:42.619Z,58.3875
2023-05-21T10:06:44.567Z,57.2200
2023-05-21T10:07:46.670Z,58.7089
2023-05-21T10:08:47.124Z,56.7556
2023-05-21T10:15:52.152Z,58.6995
2023-05-21T10:16:54.173Z,57.4916
2023-05-21T10:20:58.629Z,58.0313
2023-05-21T10:21:59.580Z,60.2186
2023-05-21T10:23:00.824Z,60.9495
2023-05-21T10:24:01.396Z,58.3954
2023-05-21T10:25:02.031Z,59.3095
2023-05-21T10:26:04.247Z,60.3454
2023-05-21T10:27:04.328Z,59.8141
2023-05-21T10:28:07.401Z,60.5162
2023-05-21T10:35:12.596Z,58.9457
2023-05-21T10:36:14.170Z,59.5595
2023-05-21T10:51:35.306Z,53.0265
2023-05-21T10:52:37.469Z,53.0409
2023-05-21T10:53:38.151Z,52.1028
2023-05-21T10:54:38.759Z,53.3821
2023-05-21T10:55:39.278Z,53.4701
2023-05-21T10:56:39.880Z,54.2269
2023-05-21T10:57:42.140Z,58.0468
2023-05-21T11:06:50.998Z,57.5451
2023-05-21T11:07:51.447Z,57.8188
2023-05-21T11:08:55.848Z,58.2917
2023-05-21T11:09:53.256Z,55.1016
2023-05-21T11:20:04.347Z,59.3439
2023-05-21T11:22:07.511Z,58.0008
2023-05-21T11:23:07.969Z,57.2152
2023-05-21T11:24:08.324Z,56.4753
2023-05-21T11:25:10.243Z,57.4560
2023-05-21T11:26:12.332Z,57.7604
2023-05-21T11:27:12.953Z,58.1765
2023-05-21T11:29:15.289Z,55.8054
2023-05-21T11:30:16.371Z,56.5181
2023-05-21T11:31:18.121Z,56.9142
2023-05-21T11:32:19.313Z,57.5664
2023-05-21T11:33:20.559Z,57.0136
2023-05-21T11:34:22.974Z,54.8489
2023-05-21T11:35:23.086Z,51.1643
2023-05-21T11:36:24.304Z,52.9448
2023-05-21T11:50:38.959Z,54.5343
2023-05-21T12:00:52.878Z,48.0173
2023-05-21T12:01:54.383Z,47.9178
2023-05-21T12:02:55.561Z,43.6747
2023-05-21T12:06:00.712Z,48.4807
2023-05-21T12:07:01.961Z,48.0665
2023-05-21T12:08:02.366Z,48.6372
2023-05-21T12:09:03.426Z,50.6548
2023-05-21T12:10:04.432Z,51.0809
2023-05-21T12:11:05.141Z,49.4079
2023-05-21T12:26:18.395Z,51.5875
2023-05-21T12:27:20.235Z,52.6831
2023-05-21T12:43:36.528Z,52.1182
2023-05-21T12:44:38.909Z,52.4018
2023-05-21T12:46:41.812Z,53.6998
2023-05-21T12:56:56.465Z,53.7314
2023-05-21T12:57:57.217Z,52.3973
2023-05-21T13:02:59.646Z,55.7898
2023-05-21T13:05:00.159Z,53.8120
2023-05-21T13:08:05.022Z,52.0560
2023-05-21T13:09:06.648Z,50.1302
2023-05-21T13:10:08.190Z,53.4389
2023-05-21T13:11:10.929Z,52.2734
2023-05-21T13:12:12.952Z,52.9555
2023-05-21T13:20:19.403Z,52.0202
2023-05-21T13:21:21.278Z,54.3218
2023-05-21T13:22:22.280Z,53.0776
2023-05-21T13:23:25.118Z,56.1845
2023-05-21T13:30:31.230Z,54.8267
2023-05-21T13:33:35.802Z,53.9143
2023-05-21T13:34:36.378Z,55.0575
2023-05-21T13:35:36.443Z,52.6792
2023-05-21T13:36:37.314Z,51.7220
2023-05-21T13:37:37.312Z,53.0593
2023-05-21T13:39:39.998Z,54.2774
2023-05-21T13:40:41.086Z,51.0875
2023-05-21T13:41:41.283Z,47.3490
2023-05-21T13:42:41.377Z,47.9656
2023-05-21T13:43:43.898Z,50.0154
2023-05-21T13:44:45.710Z,49.3280
2023-05-21T13:52:53.935Z,49.2917
2023-05-21T13:53:57.034Z,49.3003
2023-05-21T13:58:56.834Z,49.6603
2023-05-21T13:59:57.490Z,51.0368
2023-05-21T14:10:12.778Z,45.4658
2023-05-21T14:11:13.080Z,46.3296
2023-05-21T14:13:20.555Z,47.9738
2023-05-21T14:15:18.624Z,44.9642
2023-05-21T14:16:20.523Z,48.3949
2023-05-21T14:17:22.699Z,47.6812
2023-05-21T14:19:25.248Z,46.7489
2023-05-21T14:21:26.610Z,45.5905
2023-05-21T14:22:26.899Z,43.1314
2023-05-21T14:32:36.944Z,44.8015
2023-05-21T14:33:37.922Z,44.2107
2023-05-21T14:34:38.832Z,43.1771
2023-05-21T14:36:42.208Z,41.7802
2023-05-21T14:37:42.836Z,45.5187
2023-05-21T14:38:44.040Z,44.3697
2023-05-21T14:39:43.884Z,44.1343
2023-05-21T14:42:48.416Z,46.7957
2023-05-21T14:43:49.075Z,43.2672
2023-05-21T14:44:49.499Z,45.8250
2023-05-21T14:45:50.911Z,42.8958
2023-05-21T14:46:50.959Z,41.1160
2023-05-21T14:47:52.365Z,44.2712
2023-05-21T14:48:54.103Z,44.7825
2023-05-21T14:49:55.876Z,44.7821
2023-05-21T14:50:56.529Z,46.3262
2023-05-21T14:51:58.463Z,43.4942
2023-05-21T14:52:58.772Z,48.4912
2023-05-21T14:53:59.296Z,57.9781
2023-05-21T14:56:01.431Z,46.4911
2023-05-21T14:57:01.681Z,50.7182
2023-05-21T14:59:05.210Z,44.2583
2023-05-21T15:00:05.769Z,50.5216
2023-05-21T15:01:06.648Z,50.7585
2023-05-21T15:02:07.422Z,60.7531
2023-05-21T15:03:08.078Z,54.5950
2023-05-21T15:05:09.795Z,44.4599
2023-05-21T15:06:09.585Z,52.4848
2023-05-21T15:08:12.492Z,58.5765
2023-05-21T15:09:13.246Z,59.7506
2023-05-21T15:12:18.549Z,57.8344
2023-05-21T15:21:29.358Z,52.5288
2023-05-21T15:22:30.721Z,45.2896
2023-05-21T15:31:39.688Z,40.1606
2023-05-21T15:32:39.787Z,39.2702
2023-05-21T15:33:40.937Z,39.2493
2023-05-21T15:34:40.930Z,40.1487
2023-05-21T15:35:44.828Z,38.1564
2023-05-21T15:36:44.068Z,40.4669
2023-05-21T15:37:45.042Z,39.6902
2023-05-21T15:38:45.522Z,39.8518
2023-05-21T15:40:48.151Z,37.8097
2023-05-21T15:42:49.870Z,36.6447
2023-05-21T15:43:51.553Z,36.7616
2023-05-21T15:44:52.893Z,39.0253
2023-05-21T15:45:53.501Z,38.8413
2023-05-21T15:46:54.341Z,40.3507
2023-05-21T15:47:54.541Z,41.7476
2023-05-21T15:48:56.179Z,43.4711
2023-05-21T15:49:58.327Z,39.4562
2023-05-21T15:50:58.864Z,40.5481
2023-05-21T15:52:00.210Z,40.1424
2023-05-21T15:53:02.396Z,40.1025
2023-05-21T15:56:32.936Z,40.5082
2023-05-21T15:58:39.240Z,42.1045
2023-05-21T16:18:30.648Z,45.7444
2023-05-21T16:19:33.235Z,44.0587
2023-05-21T16:25:40.391Z,42.8205
2023-05-21T16:26:42.035Z,42.6212
2023-05-21T16:27:42.524Z,48.1001
2023-05-21T16:32:49.049Z,48.1979
2023-05-21T16:33:49.911Z,49.6398
2023-05-21T16:34:51.454Z,52.3542
2023-05-21T16:35:54.387Z,53.1389
2023-05-21T16:36:57.508Z,54.5775
2023-05-21T16:59:51.213Z,47.4772
2023-05-21T17:06:57.248Z,46.2693
2023-05-21T17:15:07.174Z,58.3960
2023-05-21T17:16:07.300Z,56.8820
2023-05-21T17:17:09.363Z,63.2523
2023-05-21T17:18:12.334Z,66.0104
2023-05-21T17:19:12.436Z,62.0833
2023-05-21T17:20:13.629Z,63.1285
2023-05-21T17:21:15.417Z,61.6609
2023-05-21T17:23:19.284Z,63.8860
2023-05-21T17:24:21.258Z,63.6409
2023-05-21T17:25:21.862Z,61.0164
2023-05-21T17:37:34.613Z,62.0237
2023-05-21T17:52:55.680Z,70.3975
2023-05-21T17:53:56.674Z,71.7873
2023-05-21T17:54:56.862Z,68.7432
2023-05-21T17:57:00.389Z,71.8025
2023-05-21T17:58:02.940Z,72.9598
2023-05-21T17:59:04.508Z,73.2926
2023-05-21T18:00:05.598Z,73.3131
2023-05-21T18:08:17.774Z,73.0977
2023-05-21T18:20:30.802Z,75.2637
2023-05-21T18:21:31.486Z,76.9635
2023-05-21T18:22:32.982Z,75.2284
2023-05-21T18:24:35.469Z,75.2777
2023-05-21T18:28:39.716Z,76.2506
2023-05-21T18:29:40.949Z,76.2164
2023-05-21T18:30:41.225Z,76.1514
2023-05-21T18:31:41.982Z,76.4918
2023-05-21T18:32:42.676Z,76.7216
2023-05-21T18:33:42.749Z,74.9034
2023-05-21T18:34:44.713Z,76.7616
2023-05-21T18:35:45.544Z,74.8887
2023-05-21T18:49:57.728Z,76.5013
2023-05-21T18:50:59.956Z,74.9440
2023-05-21T18:52:00.506Z,72.9545
2023-05-21T18:53:01.762Z,76.0048
2023-05-21T18:54:03.102Z,74.9480
2023-05-21T18:56:03.175Z,74.9106
2023-05-21T18:57:04.745Z,74.6102
2023-05-21T18:58:07.025Z,73.9110
2023-05-21T18:59:09.114Z,75.0099
2023-05-21T19:00:09.594Z,75.2555
2023-05-21T19:02:13.127Z,74.9118
2023-05-21T19:03:14.844Z,75.7638
2023-05-21T19:04:15.991Z,75.8427
2023-05-21T19:12:22.726Z,73.8237
2023-05-21T19:13:24.706Z,74.6071
2023-05-21T19:14:25.869Z,75.4467
2023-05-21T19:15:26.455Z,74.9744
2023-05-21T19:16:28.705Z,74.6939
2023-05-21T19:17:30.729Z,74.9168
2023-05-21T19:25:38.373Z,77.4295
2023-05-21T19:28:42.970Z,75.6769
2023-05-21T19:29:44.205Z,75.6017
2023-05-21T19:30:45.383Z,76.5058
2023-05-21T19:31:47.287Z,78.2625
2023-05-21T19:32:48.699Z,76.0805
2023-05-21T19:33:50.265Z,75.8647
2023-05-21T19:34:52.300Z,76.2723
2023-05-21T19:35:54.052Z,76.6302
2023-05-21T19:36:56.062Z,75.9702
2023-05-21T19:37:56.157Z,75.9589
2023-05-21T19:38:57.543Z,75.5924
2023-05-21T19:39:59.808Z,75.6623
2023-05-21T19:41:01.203Z,76.2060
2023-05-21T19:42:02.873Z,76.5878
2023-05-21T19:48:08.294Z,80.5613
2023-05-21T19:49:10.224Z,79.8282
2023-05-21T19:50:11.919Z,80.4090
2023-05-21T19:51:12.441Z,79.8635
2023-05-21T19:52:12.577Z,77.6927
2023-05-21T19:53:14.229Z,77.6866
2023-05-21T19:54:15.276Z,78.9596
2023-05-21T19:55:15.314Z,79.4816
2023-05-21T19:56:15.867Z,79.6772
2023-05-21T19:57:16.109Z,81.1924
2023-05-21T19:58:17.873Z,81.0541
2023-05-21T19:59:19.684Z,79.7043
2023-05-21T20:01:21.949Z,80.1359
2023-05-21T20:02:23.477Z,79.5631
2023-05-21T20:03:24.722Z,78.8757
2023-05-21T20:05:27.352Z,78.9425
2023-05-21T20:28:53.787Z,83.1757
2023-05-21T20:29:55.542Z,83.5848
2023-05-21T20:30:55.773Z,83.7508
2023-05-21T20:31:57.056Z,82.5273
2023-05-21T20:32:59.325Z,83.4212
2023-05-21T20:34:01.616Z,84.3130
2023-05-21T20:35:04.380Z,83.8326
2023-05-21T20:45:15.343Z,84.8309
2023-05-21T20:46:16.482Z,83.7736
2023-05-21T20:47:17.716Z,84.6714
2023-05-21T20:48:19.030Z,85.8513
2023-05-21T20:49:19.754Z,85.7568
2023-05-21T20:51:23.049Z,84.5897
2023-05-21T21:03:38.839Z,85.9492
2023-05-21T21:04:39.290Z,86.2283
2023-05-21T21:05:39.735Z,86.4013
2023-05-21T21:06:41.843Z,85.9907
2023-05-21T21:07:42.051Z,86.6969
2023-05-21T21:08:42.131Z,87.0429
2023-05-21T21:09:44.584Z,86.5983
2023-05-21T21:10:46.472Z,86.5631
2023-05-21T21:11:47.923Z,86.6011
2023-05-21T21:13:50.935Z,86.4326
2023-05-21T21:14:51.658Z,86.4284
2023-05-21T21:16:54.237Z,87.2588
2023-05-21T21:17:56.288Z,87.3859
2023-05-21T21:18:57.350Z,85.9258
2023-05-21T21:28:06.943Z,84.6514
2023-05-21T21:29:08.408Z,84.3539
2023-05-21T21:30:10.066Z,84.8188
2023-05-21T21:31:11.759Z,85.2211
2023-05-21T21:32:14.081Z,85.0705
2023-05-21T21:33:14.000Z,84.8112
2023-05-21T21:39:24.786Z,85.2302
2023-05-21T21:40:25.702Z,85.3211
2023-05-21T21:42:28.643Z,85.7638
2023-05-21T21:43:29.445Z,86.3094
2023-05-21T21:44:29.555Z,86.1707
2023-05-21T21:45:31.266Z,86.7030
2023-05-21T21:46:33.157Z,86.4501
2023-05-21T21:47:34.468Z,86.4697
2023-05-21T21:48:36.367Z,86.4635
2023-05-21T21:49:37.898Z,85.0690
2023-05-21T21:50:40.054Z,84.4027
2023-05-21T22:01:53.543Z,85.3260
2023-05-21T22:02:55.353Z,85.1789
2023-05-21T22:03:56.375Z,85.6367
2023-05-21T22:04:58.458Z,85.9194
2023-05-21T22:05:59.078Z,86.4099
2023-05-21T22:07:00.259Z,86.5144
2023-05-21T22:08:01.906Z,87.3347
2023-05-21T22:09:03.728Z,87.6844
2023-05-21T22:17:11.182Z,85.4788
2023-05-21T22:23:16.172Z,83.0537
2023-05-21T22:24:32.134Z,83.2355
2023-05-21T22:30:54.836Z,82.4724
2023-05-21T22:31:56.466Z,82.5106
2023-05-21T22:32:58.762Z,82.1480
2023-05-21T22:33:58.786Z,82.3408
2023-05-21T22:34:59.349Z,81.7446
2023-05-21T22:37:04.085Z,82.1516
2023-05-21T22:38:04.944Z,81.3447
2023-05-21T22:39:05.652Z,81.4073
2023-05-21T22:40:06.857Z,81.6000
2023-05-21T22:41:08.724Z,82.2101
2023-05-21T22:42:09.297Z,83.0373
2023-05-21T22:43:10.539Z,83.3956
2023-05-21T22:52:21.352Z,81.1688
2023-05-21T22:53:23.136Z,80.6766
2023-05-21T22:57:29.846Z,79.0076
2023-05-21T23:06:39.922Z,78.2277
2023-05-21T23:07:41.053Z,77.0607
2023-05-21T23:08:43.632Z,76.9599
2023-05-21T23:09:45.511Z,77.1678
2023-05-21T23:10:47.599Z,77.6641
2023-05-21T23:11:47.458Z,76.8332
2023-05-21T23:12:47.951Z,76.7657
2023-05-21T23:14:52.025Z,76.6722
2023-05-21T23:16:54.839Z,76.7715
2023-05-21T23:17:55.261Z,76.8448
2023-05-21T23:18:56.574Z,77.6265
2023-05-21T23:19:57.882Z,77.7961
2023-05-21T23:30:41.807Z,78.4852
2023-05-21T23:42:55.313Z,80.4926
2023-05-21T23:43:57.181Z,80.6611
2023-05-21T23:44:58.989Z,80.8235
2023-05-21T23:46:00.466Z,80.4369
2023-05-21T23:47:02.438Z,80.5660
2023-05-21T23:48:03.938Z,80.5744
2023-05-21T23:49:06.583Z,80.8704
2023-05-21T23:50:08.531Z,81.4477
2023-05-21T23:51:08.360Z,81.4561
